Terminal Aerodrome Forecast
Issued by NWS

Home | Current Version | Previous Version | Text Only | Print | Product List | Glossary On
Versions: 1 2 3 4 5 6 7 8 9 10 11 12 13 14 15 16 17 18 19 20 21 22 23 24 25 26 27 28 29 30
674
FTUS45 KGGW 071731
TAFOLF
TAF
KOLF 071731Z 0718/0818 29018G26KT P6SM SCT045 BKN070
     FM080100 28009KT P6SM SCT050
     FM080600 28007KT P6SM BKN030=

USA.gov is the U.S. government's official web portal to all federal, state and local government web resources and services.